Nether Providence, Pennsylvania
Current Conditions -  °F | °C
As of 6:54 PM on Friday 28 Nov 2014 (Local Time) from KPHL Reporting Station
Few Clouds Few Clouds  
Wind Chill: 28°   Ceiling: Unl
Heat Index: 34°   Visibility: 10mi
Dew Point: 15°   Wind: 7mph
Humidity: 46%   Direction: 300°WNW
Pressure: 30.28"   Gusts: NA
Location:  39.8901°N, 75.3702°W
Report Text: KPHL 282354Z 30006KT 10SM FEW250 01/M09 A3028 RMK AO2 SLP252 T00111094 10039 20006 51011 $
Loading
Personal Weather Stations






























Interactive Weather Map New forecast layout! Learn more

10-Day Weather Forecast

Advertisements
Track Severe Weather on mobile